sensor_id;sensor_type;location;lat;lon;timestamp;P1;durP1;ratioP1;P2;durP2;ratioP2
69789;SDS011;57064;52.046;4.800;2022-08-18T00:01:39;26.65;;;17.55;;
69789;SDS011;57064;52.046;4.800;2022-08-18T00:04:07;24.10;;;16.83;;
69789;SDS011;57064;52.046;4.800;2022-08-18T00:06:34;27.23;;;16.83;;
69789;SDS011;57064;52.046;4.800;2022-08-18T00:09:01;26.23;;;16.02;;
69789;SDS011;57064;52.046;4.800;2022-08-18T00:11:30;29.02;;;16.02;;
69789;SDS011;57064;52.046;4.800;2022-08-18T00:13:58;25.00;;;15.82;;
69789;SDS011;57064;52.046;4.800;2022-08-18T00:16:24;25.48;;;17.00;;
69789;SDS011;57064;52.046;4.800;2022-08-18T00:18:51;25.30;;;16.85;;
69789;SDS011;57064;52.046;4.800;2022-08-18T00:21:17;25.27;;;16.65;;
69789;SDS011;57064;52.046;4.800;2022-08-18T00:23:43;25.30;;;16.13;;
69789;SDS011;57064;52.046;4.800;2022-08-18T00:26:10;28.30;;;15.95;;
69789;SDS011;57064;52.046;4.800;2022-08-18T00:28:36;25.88;;;16.33;;
69789;SDS011;57064;52.046;4.800;2022-08-18T00:31:03;35.28;;;16.45;;
69789;SDS011;57064;52.046;4.800;2022-08-18T00:33:30;26.08;;;16.65;;
69789;SDS011;57064;52.046;4.800;2022-08-18T00:35:56;26.98;;;16.92;;
69789;SDS011;57064;52.046;4.800;2022-08-18T00:38:22;28.02;;;17.45;;
69789;SDS011;57064;52.046;4.800;2022-08-18T00:40:49;30.35;;;16.38;;
69789;SDS011;57064;52.046;4.800;2022-08-18T00:44:02;26.60;;;16.77;;
69789;SDS011;57064;52.046;4.800;2022-08-18T00:46:11;26.00;;;16.60;;
69789;SDS011;57064;52.046;4.800;2022-08-18T00:48:41;27.85;;;16.83;;
69789;SDS011;57064;52.046;4.800;2022-08-18T00:51:10;27.27;;;16.75;;
69789;SDS011;57064;52.046;4.800;2022-08-18T00:53:41;31.38;;;18.00;;
69789;SDS011;57064;52.046;4.800;2022-08-18T00:56:25;30.30;;;18.85;;
69789;SDS011;57064;52.046;4.800;2022-08-18T00:59:03;35.78;;;19.90;;
69789;SDS011;57064;52.046;4.800;2022-08-18T01:01:35;27.50;;;17.05;;
69789;SDS011;57064;52.046;4.800;2022-08-18T01:04:08;31.65;;;17.58;;
69789;SDS011;57064;52.046;4.800;2022-08-18T01:06:45;28.35;;;17.10;;
69789;SDS011;57064;52.046;4.800;2022-08-18T01:09:20;29.23;;;18.02;;
69789;SDS011;57064;52.046;4.800;2022-08-18T01:11:46;31.00;;;17.38;;
69789;SDS011;57064;52.046;4.800;2022-08-18T01:14:12;32.63;;;17.88;;
69789;SDS011;57064;52.046;4.800;2022-08-18T01:16:42;35.13;;;17.67;;
69789;SDS011;57064;52.046;4.800;2022-08-18T01:19:29;31.17;;;17.85;;
69789;SDS011;57064;52.046;4.800;2022-08-18T01:22:18;32.38;;;16.75;;
69789;SDS011;57064;52.046;4.800;2022-08-18T01:24:44;29.38;;;16.90;;
69789;SDS011;57064;52.046;4.800;2022-08-18T01:27:29;28.63;;;17.33;;
69789;SDS011;57064;52.046;4.800;2022-08-18T01:29:56;29.55;;;17.40;;
69789;SDS011;57064;52.046;4.800;2022-08-18T01:32:27;34.88;;;17.60;;
69789;SDS011;57064;52.046;4.800;2022-08-18T01:34:53;37.85;;;18.42;;
69789;SDS011;57064;52.046;4.800;2022-08-18T01:37:21;35.15;;;19.38;;
69789;SDS011;57064;52.046;4.800;2022-08-18T01:39:49;30.15;;;17.15;;
69789;SDS011;57064;52.046;4.800;2022-08-18T01:42:15;31.10;;;18.20;;
69789;SDS011;57064;52.046;4.800;2022-08-18T01:44:42;34.10;;;18.55;;
69789;SDS011;57064;52.046;4.800;2022-08-18T01:47:10;38.45;;;18.85;;
69789;SDS011;57064;52.046;4.800;2022-08-18T01:49:37;30.58;;;17.33;;
69789;SDS011;57064;52.046;4.800;2022-08-18T01:52:07;30.58;;;17.88;;
69789;SDS011;57064;52.046;4.800;2022-08-18T01:54:34;35.08;;;17.65;;
69789;SDS011;57064;52.046;4.800;2022-08-18T01:57:00;33.63;;;17.95;;
69789;SDS011;57064;52.046;4.800;2022-08-18T01:59:27;30.92;;;16.88;;
69789;SDS011;57064;52.046;4.800;2022-08-18T02:01:53;34.70;;;18.27;;
69789;SDS011;57064;52.046;4.800;2022-08-18T02:04:24;34.78;;;19.15;;
69789;SDS011;57064;52.046;4.800;2022-08-18T02:06:55;34.83;;;17.95;;
69789;SDS011;57064;52.046;4.800;2022-08-18T02:09:21;33.60;;;18.88;;
69789;SDS011;57064;52.046;4.800;2022-08-18T02:11:48;28.00;;;17.33;;
69789;SDS011;57064;52.046;4.800;2022-08-18T02:14:14;31.23;;;17.67;;
69789;SDS011;57064;52.046;4.800;2022-08-18T02:16:40;34.38;;;18.42;;
69789;SDS011;57064;52.046;4.800;2022-08-18T02:19:06;38.95;;;19.90;;
69789;SDS011;57064;52.046;4.800;2022-08-18T02:21:32;35.63;;;18.85;;
69789;SDS011;57064;52.046;4.800;2022-08-18T02:23:58;38.17;;;19.80;;
69789;SDS011;57064;52.046;4.800;2022-08-18T02:26:24;34.92;;;18.83;;
69789;SDS011;57064;52.046;4.800;2022-08-18T02:28:50;42.28;;;20.83;;
69789;SDS011;57064;52.046;4.800;2022-08-18T02:31:17;37.35;;;20.25;;
69789;SDS011;57064;52.046;4.800;2022-08-18T02:33:46;44.67;;;21.33;;
69789;SDS011;57064;52.046;4.800;2022-08-18T02:36:13;41.13;;;20.73;;
69789;SDS011;57064;52.046;4.800;2022-08-18T02:38:39;42.85;;;21.88;;
69789;SDS011;57064;52.046;4.800;2022-08-18T02:41:07;43.15;;;21.45;;
69789;SDS011;57064;52.046;4.800;2022-08-18T02:43:35;39.00;;;20.85;;
69789;SDS011;57064;52.046;4.800;2022-08-18T02:46:02;43.05;;;21.75;;
69789;SDS011;57064;52.046;4.800;2022-08-18T02:48:30;45.38;;;22.38;;
69789;SDS011;57064;52.046;4.800;2022-08-18T02:51:07;45.10;;;22.88;;
69789;SDS011;57064;52.046;4.800;2022-08-18T02:53:36;47.17;;;23.60;;
69789;SDS011;57064;52.046;4.800;2022-08-18T03:01:12;49.53;;;23.52;;
69789;SDS011;57064;52.046;4.800;2022-08-18T03:03:39;46.20;;;22.90;;
69789;SDS011;57064;52.046;4.800;2022-08-18T03:06:05;44.50;;;22.13;;
69789;SDS011;57064;52.046;4.800;2022-08-18T03:08:31;43.13;;;22.38;;
69789;SDS011;57064;52.046;4.800;2022-08-18T03:10:57;45.55;;;23.92;;
69789;SDS011;57064;52.046;4.800;2022-08-18T03:13:23;48.53;;;24.65;;
69789;SDS011;57064;52.046;4.800;2022-08-18T03:15:50;44.47;;;24.15;;
69789;SDS011;57064;52.046;4.800;2022-08-18T03:18:16;50.38;;;26.25;;
69789;SDS011;57064;52.046;4.800;2022-08-18T03:20:42;48.80;;;25.92;;
69789;SDS011;57064;52.046;4.800;2022-08-18T03:23:09;52.60;;;28.05;;
69789;SDS011;57064;52.046;4.800;2022-08-18T03:25:35;63.88;;;31.08;;
69789;SDS011;57064;52.046;4.800;2022-08-18T03:28:12;66.30;;;33.25;;
69789;SDS011;57064;52.046;4.800;2022-08-18T03:30:39;68.55;;;35.58;;
69789;SDS011;57064;52.046;4.800;2022-08-18T03:33:07;76.80;;;38.28;;
69789;SDS011;57064;52.046;4.800;2022-08-18T03:35:34;78.43;;;37.20;;
69789;SDS011;57064;52.046;4.800;2022-08-18T03:38:01;87.63;;;43.40;;
69789;SDS011;57064;52.046;4.800;2022-08-18T03:40:28;78.70;;;39.85;;
69789;SDS011;57064;52.046;4.800;2022-08-18T03:42:54;71.85;;;39.58;;
69789;SDS011;57064;52.046;4.800;2022-08-18T03:45:20;72.25;;;37.00;;
69789;SDS011;57064;52.046;4.800;2022-08-18T03:47:48;67.88;;;36.03;;
69789;SDS011;57064;52.046;4.800;2022-08-18T03:50:16;68.30;;;36.50;;
69789;SDS011;57064;52.046;4.800;2022-08-18T03:52:44;67.38;;;35.35;;
69789;SDS011;57064;52.046;4.800;2022-08-18T03:55:12;63.60;;;32.22;;
69789;SDS011;57064;52.046;4.800;2022-08-18T03:57:42;64.90;;;33.42;;
69789;SDS011;57064;52.046;4.800;2022-08-18T04:00:09;53.67;;;30.80;;
69789;SDS011;57064;52.046;4.800;2022-08-18T04:02:36;57.05;;;29.00;;
69789;SDS011;57064;52.046;4.800;2022-08-18T04:05:03;57.83;;;31.08;;
69789;SDS011;57064;52.046;4.800;2022-08-18T04:07:30;59.70;;;31.27;;
69789;SDS011;57064;52.046;4.800;2022-08-18T04:09:56;55.88;;;30.88;;
69789;SDS011;57064;52.046;4.800;2022-08-18T04:12:22;60.05;;;31.40;;
69789;SDS011;57064;52.046;4.800;2022-08-18T04:14:49;67.65;;;35.80;;
69789;SDS011;57064;52.046;4.800;2022-08-18T04:17:16;59.88;;;32.42;;
69789;SDS011;57064;52.046;4.800;2022-08-18T04:19:48;65.07;;;31.83;;
69789;SDS011;57064;52.046;4.800;2022-08-18T04:22:15;67.00;;;35.20;;
69789;SDS011;57064;52.046;4.800;2022-08-18T04:24:42;61.78;;;32.75;;
69789;SDS011;57064;52.046;4.800;2022-08-18T04:27:08;66.30;;;34.67;;
69789;SDS011;57064;52.046;4.800;2022-08-18T04:29:34;64.20;;;32.85;;
69789;SDS011;57064;52.046;4.800;2022-08-18T04:32:01;65.05;;;33.15;;
69789;SDS011;57064;52.046;4.800;2022-08-18T04:34:31;63.85;;;32.03;;
69789;SDS011;57064;52.046;4.800;2022-08-18T04:36:57;60.47;;;31.13;;
69789;SDS011;57064;52.046;4.800;2022-08-18T04:39:24;60.25;;;31.85;;
69789;SDS011;57064;52.046;4.800;2022-08-18T04:41:50;62.92;;;33.72;;
69789;SDS011;57064;52.046;4.800;2022-08-18T04:44:16;65.22;;;33.70;;
69789;SDS011;57064;52.046;4.800;2022-08-18T04:46:45;70.78;;;35.15;;
69789;SDS011;57064;52.046;4.800;2022-08-18T04:49:18;74.13;;;36.38;;
69789;SDS011;57064;52.046;4.800;2022-08-18T04:51:49;68.82;;;34.35;;
69789;SDS011;57064;52.046;4.800;2022-08-18T04:54:35;75.97;;;35.72;;
69789;SDS011;57064;52.046;4.800;2022-08-18T04:57:10;77.68;;;36.42;;
69789;SDS011;57064;52.046;4.800;2022-08-18T04:59:39;68.45;;;36.25;;
69789;SDS011;57064;52.046;4.800;2022-08-18T05:02:07;81.60;;;39.95;;
69789;SDS011;57064;52.046;4.800;2022-08-18T05:04:34;86.68;;;37.58;;
69789;SDS011;57064;52.046;4.800;2022-08-18T05:07:03;81.97;;;38.92;;
69789;SDS011;57064;52.046;4.800;2022-08-18T05:09:29;68.15;;;35.28;;
69789;SDS011;57064;52.046;4.800;2022-08-18T05:11:56;53.67;;;30.92;;
69789;SDS011;57064;52.046;4.800;2022-08-18T05:14:22;41.83;;;24.70;;
69789;SDS011;57064;52.046;4.800;2022-08-18T05:16:49;37.92;;;24.35;;
69789;SDS011;57064;52.046;4.800;2022-08-18T05:19:17;38.92;;;24.15;;
69789;SDS011;57064;52.046;4.800;2022-08-18T05:21:46;37.30;;;21.85;;
69789;SDS011;57064;52.046;4.800;2022-08-18T05:24:13;36.08;;;22.08;;
69789;SDS011;57064;52.046;4.800;2022-08-18T05:26:40;35.85;;;21.80;;
69789;SDS011;57064;52.046;4.800;2022-08-18T05:29:06;36.65;;;22.13;;
69789;SDS011;57064;52.046;4.800;2022-08-18T05:31:32;34.67;;;22.23;;
69789;SDS011;57064;52.046;4.800;2022-08-18T05:33:59;36.15;;;20.73;;
69789;SDS011;57064;52.046;4.800;2022-08-18T05:39:26;36.67;;;19.40;;
69789;SDS011;57064;52.046;4.800;2022-08-18T05:42:14;34.88;;;20.05;;
69789;SDS011;57064;52.046;4.800;2022-08-18T05:44:43;35.45;;;20.23;;
69789;SDS011;57064;52.046;4.800;2022-08-18T05:49:54;34.60;;;19.38;;
69789;SDS011;57064;52.046;4.800;2022-08-18T05:58:29;29.30;;;17.27;;
69789;SDS011;57064;52.046;4.800;2022-08-18T06:01:18;31.20;;;18.45;;
69789;SDS011;57064;52.046;4.800;2022-08-18T06:03:51;33.38;;;18.15;;
69789;SDS011;57064;52.046;4.800;2022-08-18T06:06:24;27.58;;;18.20;;
69789;SDS011;57064;52.046;4.800;2022-08-18T06:11:22;26.83;;;16.88;;
69789;SDS011;57064;52.046;4.800;2022-08-18T06:13:49;29.70;;;18.00;;
69789;SDS011;57064;52.046;4.800;2022-08-18T06:16:21;34.63;;;19.10;;
69789;SDS011;57064;52.046;4.800;2022-08-18T06:19:24;27.35;;;16.77;;
69789;SDS011;57064;52.046;4.800;2022-08-18T06:22:12;25.55;;;17.23;;
69789;SDS011;57064;52.046;4.800;2022-08-18T06:25:02;25.15;;;17.25;;
69789;SDS011;57064;52.046;4.800;2022-08-18T06:28:05;25.20;;;16.55;;
69789;SDS011;57064;52.046;4.800;2022-08-18T06:30:44;26.90;;;15.05;;
69789;SDS011;57064;52.046;4.800;2022-08-18T06:36:00;24.60;;;15.13;;
69789;SDS011;57064;52.046;4.800;2022-08-18T06:38:42;20.33;;;13.55;;
69789;SDS011;57064;52.046;4.800;2022-08-18T06:41:38;17.75;;;12.80;;
69789;SDS011;57064;52.046;4.800;2022-08-18T06:44:10;18.35;;;12.02;;
69789;SDS011;57064;52.046;4.800;2022-08-18T06:46:44;20.02;;;13.02;;
69789;SDS011;57064;52.046;4.800;2022-08-18T06:52:26;17.83;;;12.32;;
69789;SDS011;57064;52.046;4.800;2022-08-18T06:55:05;18.73;;;12.52;;
69789;SDS011;57064;52.046;4.800;2022-08-18T06:57:53;16.90;;;11.63;;
69789;SDS011;57064;52.046;4.800;2022-08-18T07:00:23;14.53;;;10.10;;
69789;SDS011;57064;52.046;4.800;2022-08-18T07:03:00;15.30;;;10.93;;
69789;SDS011;57064;52.046;4.800;2022-08-18T07:05:34;15.50;;;10.18;;
69789;SDS011;57064;52.046;4.800;2022-08-18T07:10:37;13.45;;;9.48;;
69789;SDS011;57064;52.046;4.800;2022-08-18T07:15:51;12.82;;;9.18;;
69789;SDS011;57064;52.046;4.800;2022-08-18T07:18:24;8.63;;;6.30;;
69789;SDS011;57064;52.046;4.800;2022-08-18T07:20:56;8.55;;;5.07;;
69789;SDS011;57064;52.046;4.800;2022-08-18T07:25:59;8.75;;;4.93;;
69789;SDS011;57064;52.046;4.800;2022-08-18T07:31:23;6.13;;;4.80;;
69789;SDS011;57064;52.046;4.800;2022-08-18T07:34:05;5.13;;;3.97;;
69789;SDS011;57064;52.046;4.800;2022-08-18T07:36:48;7.75;;;3.95;;
69789;SDS011;57064;52.046;4.800;2022-08-18T07:39:43;7.05;;;4.40;;
69789;SDS011;57064;52.046;4.800;2022-08-18T07:42:29;6.32;;;4.63;;
69789;SDS011;57064;52.046;4.800;2022-08-18T07:45:05;6.88;;;4.18;;
69789;SDS011;57064;52.046;4.800;2022-08-18T07:47:45;6.63;;;4.50;;
69789;SDS011;57064;52.046;4.800;2022-08-18T07:50:19;4.85;;;3.50;;
69789;SDS011;57064;52.046;4.800;2022-08-18T07:52:50;7.03;;;4.78;;
69789;SDS011;57064;52.046;4.800;2022-08-18T07:55:31;9.10;;;4.82;;
69789;SDS011;57064;52.046;4.800;2022-08-18T08:00:33;6.35;;;4.50;;
69789;SDS011;57064;52.046;4.800;2022-08-18T08:03:21;5.32;;;3.75;;
69789;SDS011;57064;52.046;4.800;2022-08-18T08:06:18;5.20;;;4.47;;
69789;SDS011;57064;52.046;4.800;2022-08-18T08:11:55;7.18;;;4.00;;
69789;SDS011;57064;52.046;4.800;2022-08-18T08:14:32;6.30;;;4.18;;
69789;SDS011;57064;52.046;4.800;2022-08-18T08:23:08;6.22;;;5.50;;
69789;SDS011;57064;52.046;4.800;2022-08-18T08:34:13;7.68;;;5.60;;
69789;SDS011;57064;52.046;4.800;2022-08-18T08:36:46;10.38;;;7.13;;
69789;SDS011;57064;52.046;4.800;2022-08-18T08:39:18;9.52;;;8.10;;
69789;SDS011;57064;52.046;4.800;2022-08-18T08:41:50;10.02;;;8.95;;
69789;SDS011;57064;52.046;4.800;2022-08-18T08:46:53;11.60;;;9.70;;
69789;SDS011;57064;52.046;4.800;2022-08-18T08:49:56;14.23;;;9.32;;
69789;SDS011;57064;52.046;4.800;2022-08-18T08:52:26;12.32;;;10.02;;
69789;SDS011;57064;52.046;4.800;2022-08-18T08:55:02;14.02;;;10.75;;
69789;SDS011;57064;52.046;4.800;2022-08-18T08:57:31;11.43;;;10.23;;
69789;SDS011;57064;52.046;4.800;2022-08-18T09:00:02;12.07;;;9.10;;
69789;SDS011;57064;52.046;4.800;2022-08-18T09:02:43;11.65;;;8.82;;
69789;SDS011;57064;52.046;4.800;2022-08-18T09:05:24;7.32;;;6.60;;
69789;SDS011;57064;52.046;4.800;2022-08-18T09:08:12;10.15;;;8.80;;
69789;SDS011;57064;52.046;4.800;2022-08-18T09:13:46;9.15;;;6.43;;
69789;SDS011;57064;52.046;4.800;2022-08-18T09:16:51;5.53;;;3.97;;
69789;SDS011;57064;52.046;4.800;2022-08-18T09:24:38;5.97;;;4.95;;
69789;SDS011;57064;52.046;4.800;2022-08-18T09:40:51;4.97;;;4.47;;
69789;SDS011;57064;52.046;4.800;2022-08-18T09:51:49;7.30;;;4.85;;
69789;SDS011;57064;52.046;4.800;2022-08-18T09:54:18;7.18;;;5.82;;
69789;SDS011;57064;52.046;4.800;2022-08-18T10:07:47;6.65;;;5.03;;
69789;SDS011;57064;52.046;4.800;2022-08-18T10:10:21;5.78;;;4.68;;
69789;SDS011;57064;52.046;4.800;2022-08-18T10:21:09;5.28;;;4.72;;
69789;SDS011;57064;52.046;4.800;2022-08-18T10:23:50;4.63;;;3.80;;
69789;SDS011;57064;52.046;4.800;2022-08-18T10:34:42;6.97;;;5.53;;
69789;SDS011;57064;52.046;4.800;2022-08-18T10:37:17;8.10;;;5.50;;
69789;SDS011;57064;52.046;4.800;2022-08-18T10:42:38;5.85;;;5.25;;
69789;SDS011;57064;52.046;4.800;2022-08-18T10:48:04;10.18;;;6.40;;
69789;SDS011;57064;52.046;4.800;2022-08-18T10:54:17;9.05;;;7.45;;
69789;SDS011;57064;52.046;4.800;2022-08-18T10:57:09;9.20;;;8.25;;
69789;SDS011;57064;52.046;4.800;2022-08-18T11:04:56;5.10;;;4.60;;
69789;SDS011;57064;52.046;4.800;2022-08-18T11:07:24;6.65;;;5.57;;
69789;SDS011;57064;52.046;4.800;2022-08-18T11:09:53;6.72;;;5.75;;
69789;SDS011;57064;52.046;4.800;2022-08-18T11:15:34;6.57;;;5.63;;
69789;SDS011;57064;52.046;4.800;2022-08-18T11:24:00;7.70;;;5.33;;
69789;SDS011;57064;52.046;4.800;2022-08-18T11:26:39;7.13;;;4.60;;
69789;SDS011;57064;52.046;4.800;2022-08-18T11:29:20;7.43;;;4.68;;
69789;SDS011;57064;52.046;4.800;2022-08-18T11:31:49;4.75;;;4.18;;
69789;SDS011;57064;52.046;4.800;2022-08-18T11:37:23;5.55;;;4.68;;
69789;SDS011;57064;52.046;4.800;2022-08-18T11:40:04;5.30;;;4.78;;
69789;SDS011;57064;52.046;4.800;2022-08-18T11:42:36;6.03;;;4.70;;
69789;SDS011;57064;52.046;4.800;2022-08-18T11:47:38;7.35;;;4.70;;
69789;SDS011;57064;52.046;4.800;2022-08-18T11:53:35;6.90;;;4.90;;
69789;SDS011;57064;52.046;4.800;2022-08-18T11:58:52;3.22;;;2.92;;
69789;SDS011;57064;52.046;4.800;2022-08-18T12:03:56;6.18;;;4.60;;
69789;SDS011;57064;52.046;4.800;2022-08-18T12:06:31;6.55;;;4.82;;
69789;SDS011;57064;52.046;4.800;2022-08-18T12:08:58;5.78;;;3.90;;
69789;SDS011;57064;52.046;4.800;2022-08-18T12:11:30;5.45;;;3.47;;
69789;SDS011;57064;52.046;4.800;2022-08-18T12:14:09;4.82;;;3.50;;
69789;SDS011;57064;52.046;4.800;2022-08-18T12:16:43;6.15;;;3.90;;
69789;SDS011;57064;52.046;4.800;2022-08-18T12:19:10;7.90;;;4.50;;
69789;SDS011;57064;52.046;4.800;2022-08-18T12:21:38;7.47;;;4.63;;
69789;SDS011;57064;52.046;4.800;2022-08-18T12:24:07;8.25;;;4.72;;
69789;SDS011;57064;52.046;4.800;2022-08-18T12:26:37;7.45;;;4.30;;
69789;SDS011;57064;52.046;4.800;2022-08-18T12:29:03;5.22;;;4.40;;
69789;SDS011;57064;52.046;4.800;2022-08-18T12:31:29;5.60;;;3.85;;
69789;SDS011;57064;52.046;4.800;2022-08-18T12:33:56;5.75;;;3.95;;
69789;SDS011;57064;52.046;4.800;2022-08-18T12:36:22;5.22;;;4.30;;
69789;SDS011;57064;52.046;4.800;2022-08-18T12:38:48;5.95;;;4.20;;
69789;SDS011;57064;52.046;4.800;2022-08-18T12:41:14;5.60;;;4.00;;
69789;SDS011;57064;52.046;4.800;2022-08-18T12:43:40;5.93;;;4.13;;
69789;SDS011;57064;52.046;4.800;2022-08-18T12:46:06;4.95;;;3.60;;
69789;SDS011;57064;52.046;4.800;2022-08-18T12:48:33;6.07;;;4.60;;
69789;SDS011;57064;52.046;4.800;2022-08-18T12:51:01;6.57;;;4.53;;
69789;SDS011;57064;52.046;4.800;2022-08-18T12:53:27;5.38;;;3.65;;
69789;SDS011;57064;52.046;4.800;2022-08-18T12:55:54;5.88;;;3.85;;
69789;SDS011;57064;52.046;4.800;2022-08-18T12:58:20;5.45;;;3.15;;
69789;SDS011;57064;52.046;4.800;2022-08-18T13:00:46;5.22;;;3.83;;
69789;SDS011;57064;52.046;4.800;2022-08-18T13:03:13;5.85;;;3.65;;
69789;SDS011;57064;52.046;4.800;2022-08-18T13:05:39;6.32;;;3.80;;
69789;SDS011;57064;52.046;4.800;2022-08-18T13:08:08;5.20;;;3.78;;
69789;SDS011;57064;52.046;4.800;2022-08-18T13:10:41;6.15;;;3.10;;
69789;SDS011;57064;52.046;4.800;2022-08-18T13:13:07;7.00;;;4.45;;
69789;SDS011;57064;52.046;4.800;2022-08-18T13:15:33;4.50;;;3.60;;
69789;SDS011;57064;52.046;4.800;2022-08-18T13:18:00;5.25;;;3.63;;
69789;SDS011;57064;52.046;4.800;2022-08-18T13:20:27;4.78;;;3.58;;
69789;SDS011;57064;52.046;4.800;2022-08-18T13:22:53;5.75;;;3.42;;
69789;SDS011;57064;52.046;4.800;2022-08-18T13:25:19;5.45;;;3.38;;
69789;SDS011;57064;52.046;4.800;2022-08-18T13:27:45;3.90;;;3.05;;
69789;SDS011;57064;52.046;4.800;2022-08-18T13:30:13;5.88;;;3.65;;
69789;SDS011;57064;52.046;4.800;2022-08-18T13:32:40;4.07;;;3.10;;
69789;SDS011;57064;52.046;4.800;2022-08-18T13:35:07;3.88;;;3.15;;
69789;SDS011;57064;52.046;4.800;2022-08-18T13:37:34;3.95;;;2.92;;
69789;SDS011;57064;52.046;4.800;2022-08-18T13:40:00;3.67;;;2.75;;
69789;SDS011;57064;52.046;4.800;2022-08-18T13:42:27;3.35;;;2.42;;
69789;SDS011;57064;52.046;4.800;2022-08-18T13:44:57;5.72;;;2.85;;
69789;SDS011;57064;52.046;4.800;2022-08-18T13:47:24;4.20;;;2.78;;
69789;SDS011;57064;52.046;4.800;2022-08-18T13:49:56;5.10;;;3.03;;
69789;SDS011;57064;52.046;4.800;2022-08-18T13:52:23;3.83;;;2.30;;
69789;SDS011;57064;52.046;4.800;2022-08-18T13:54:50;5.93;;;3.50;;
69789;SDS011;57064;52.046;4.800;2022-08-18T13:57:16;4.13;;;2.70;;
69789;SDS011;57064;52.046;4.800;2022-08-18T13:59:43;3.85;;;2.83;;
69789;SDS011;57064;52.046;4.800;2022-08-18T14:02:09;2.88;;;2.63;;
69789;SDS011;57064;52.046;4.800;2022-08-18T14:04:36;6.38;;;3.13;;
69789;SDS011;57064;52.046;4.800;2022-08-18T14:07:02;3.33;;;3.03;;
69789;SDS011;57064;52.046;4.800;2022-08-18T14:09:30;5.88;;;2.67;;
69789;SDS011;57064;52.046;4.800;2022-08-18T14:11:57;4.20;;;3.05;;
69789;SDS011;57064;52.046;4.800;2022-08-18T14:14:23;6.00;;;3.05;;
69789;SDS011;57064;52.046;4.800;2022-08-18T14:16:49;4.75;;;2.97;;
69789;SDS011;57064;52.046;4.800;2022-08-18T14:19:15;5.10;;;2.80;;
69789;SDS011;57064;52.046;4.800;2022-08-18T14:22:00;3.65;;;2.60;;
69789;SDS011;57064;52.046;4.800;2022-08-18T14:24:44;5.07;;;3.08;;
69789;SDS011;57064;52.046;4.800;2022-08-18T14:27:30;4.70;;;2.72;;
69789;SDS011;57064;52.046;4.800;2022-08-18T14:29:59;3.58;;;2.30;;
69789;SDS011;57064;52.046;4.800;2022-08-18T14:32:30;4.70;;;2.28;;
69789;SDS011;57064;52.046;4.800;2022-08-18T14:34:57;4.40;;;2.60;;
69789;SDS011;57064;52.046;4.800;2022-08-18T14:37:25;5.40;;;2.42;;
69789;SDS011;57064;52.046;4.800;2022-08-18T14:39:51;3.83;;;2.47;;
69789;SDS011;57064;52.046;4.800;2022-08-18T14:42:17;3.45;;;2.70;;
69789;SDS011;57064;52.046;4.800;2022-08-18T14:44:45;5.30;;;2.58;;
69789;SDS011;57064;52.046;4.800;2022-08-18T14:47:12;3.50;;;2.92;;
69789;SDS011;57064;52.046;4.800;2022-08-18T14:49:38;5.25;;;2.67;;
69789;SDS011;57064;52.046;4.800;2022-08-18T14:52:05;4.32;;;2.67;;
69789;SDS011;57064;52.046;4.800;2022-08-18T14:54:31;4.60;;;3.10;;
69789;SDS011;57064;52.046;4.800;2022-08-18T14:56:59;3.15;;;2.58;;
69789;SDS011;57064;52.046;4.800;2022-08-18T14:59:26;4.25;;;2.22;;
69789;SDS011;57064;52.046;4.800;2022-08-18T15:01:54;3.90;;;2.70;;
69789;SDS011;57064;52.046;4.800;2022-08-18T15:04:21;3.47;;;2.50;;
69789;SDS011;57064;52.046;4.800;2022-08-18T15:06:48;5.40;;;2.80;;
69789;SDS011;57064;52.046;4.800;2022-08-18T15:09:14;3.10;;;2.03;;
69789;SDS011;57064;52.046;4.800;2022-08-18T15:11:40;3.90;;;2.65;;
69789;SDS011;57064;52.046;4.800;2022-08-18T15:14:06;5.95;;;2.72;;
69789;SDS011;57064;52.046;4.800;2022-08-18T15:16:33;3.67;;;2.53;;
69789;SDS011;57064;52.046;4.800;2022-08-18T15:19:00;3.88;;;2.40;;
69789;SDS011;57064;52.046;4.800;2022-08-18T15:21:27;2.53;;;1.98;;
69789;SDS011;57064;52.046;4.800;2022-08-18T15:24:13;2.78;;;2.20;;
69789;SDS011;57064;52.046;4.800;2022-08-18T15:26:58;3.72;;;2.10;;
69789;SDS011;57064;52.046;4.800;2022-08-18T15:29:27;3.15;;;1.98;;
69789;SDS011;57064;52.046;4.800;2022-08-18T15:31:54;2.65;;;2.00;;
69789;SDS011;57064;52.046;4.800;2022-08-18T15:34:21;4.07;;;2.10;;
69789;SDS011;57064;52.046;4.800;2022-08-18T15:36:47;6.07;;;3.08;;
69789;SDS011;57064;52.046;4.800;2022-08-18T15:39:14;5.38;;;3.15;;
69789;SDS011;57064;52.046;4.800;2022-08-18T15:41:41;5.60;;;2.67;;
69789;SDS011;57064;52.046;4.800;2022-08-18T15:44:10;4.15;;;2.40;;
69789;SDS011;57064;52.046;4.800;2022-08-18T15:46:38;5.15;;;2.72;;
69789;SDS011;57064;52.046;4.800;2022-08-18T15:49:05;4.38;;;2.83;;
69789;SDS011;57064;52.046;4.800;2022-08-18T15:51:35;4.88;;;2.60;;
69789;SDS011;57064;52.046;4.800;2022-08-18T15:54:03;6.47;;;3.30;;
69789;SDS011;57064;52.046;4.800;2022-08-18T15:56:30;5.32;;;3.05;;
69789;SDS011;57064;52.046;4.800;2022-08-18T15:58:57;6.15;;;3.10;;
69789;SDS011;57064;52.046;4.800;2022-08-18T16:01:32;7.90;;;3.38;;
69789;SDS011;57064;52.046;4.800;2022-08-18T16:04:03;7.20;;;3.30;;
69789;SDS011;57064;52.046;4.800;2022-08-18T16:06:31;4.50;;;2.67;;
69789;SDS011;57064;52.046;4.800;2022-08-18T16:08:59;5.43;;;3.17;;
69789;SDS011;57064;52.046;4.800;2022-08-18T16:11:26;9.02;;;3.72;;
69789;SDS011;57064;52.046;4.800;2022-08-18T16:13:52;5.03;;;4.20;;
69789;SDS011;57064;52.046;4.800;2022-08-18T16:16:20;5.50;;;4.03;;
69789;SDS011;57064;52.046;4.800;2022-08-18T16:18:47;7.10;;;4.40;;
69789;SDS011;57064;52.046;4.800;2022-08-18T16:21:15;5.93;;;3.95;;
69789;SDS011;57064;52.046;4.800;2022-08-18T16:23:44;6.50;;;4.20;;
69789;SDS011;57064;52.046;4.800;2022-08-18T16:26:12;5.85;;;3.70;;
69789;SDS011;57064;52.046;4.800;2022-08-18T16:28:40;5.78;;;4.60;;
69789;SDS011;57064;52.046;4.800;2022-08-18T16:31:07;6.95;;;4.25;;
69789;SDS011;57064;52.046;4.800;2022-08-18T16:33:33;7.95;;;4.43;;
69789;SDS011;57064;52.046;4.800;2022-08-18T16:36:03;7.35;;;3.55;;
69789;SDS011;57064;52.046;4.800;2022-08-18T16:38:31;7.17;;;3.87;;
69789;SDS011;57064;52.046;4.800;2022-08-18T16:41:05;7.50;;;3.92;;
69789;SDS011;57064;52.046;4.800;2022-08-18T16:43:36;7.75;;;3.70;;
69789;SDS011;57064;52.046;4.800;2022-08-18T16:46:03;5.63;;;3.53;;
69789;SDS011;57064;52.046;4.800;2022-08-18T16:48:36;5.47;;;3.65;;
69789;SDS011;57064;52.046;4.800;2022-08-18T16:51:02;5.63;;;3.40;;
69789;SDS011;57064;52.046;4.800;2022-08-18T16:53:28;4.55;;;3.40;;
69789;SDS011;57064;52.046;4.800;2022-08-18T16:55:54;5.35;;;3.53;;
69789;SDS011;57064;52.046;4.800;2022-08-18T16:58:20;4.43;;;3.85;;
69789;SDS011;57064;52.046;4.800;2022-08-18T17:01:05;6.15;;;3.17;;
69789;SDS011;57064;52.046;4.800;2022-08-18T17:03:49;6.53;;;4.03;;
69789;SDS011;57064;52.046;4.800;2022-08-18T17:06:31;4.40;;;3.70;;
69789;SDS011;57064;52.046;4.800;2022-08-18T17:08:59;5.95;;;3.53;;
69789;SDS011;57064;52.046;4.800;2022-08-18T17:11:26;6.18;;;3.67;;
69789;SDS011;57064;52.046;4.800;2022-08-18T17:13:53;7.18;;;4.15;;
69789;SDS011;57064;52.046;4.800;2022-08-18T17:16:21;5.80;;;3.90;;
69789;SDS011;57064;52.046;4.800;2022-08-18T17:18:48;5.70;;;3.45;;
69789;SDS011;57064;52.046;4.800;2022-08-18T17:21:16;4.18;;;3.20;;
69789;SDS011;57064;52.046;4.800;2022-08-18T17:23:44;5.10;;;3.50;;
69789;SDS011;57064;52.046;4.800;2022-08-18T17:26:14;4.40;;;3.60;;
69789;SDS011;57064;52.046;4.800;2022-08-18T17:29:49;5.60;;;3.35;;
69789;SDS011;57064;52.046;4.800;2022-08-18T17:32:10;6.40;;;3.88;;